MT WASHINGTON (MTW)

Elevation: 920' · LOS ANGELES R basin · Operator: Los Angeles County Fire Dept

Query executed Wednesday at 9:19:10   clock

Provisional data, subject to change.
Select a sensor type for a plot of data.

Earlier

Date   /   Time   RAIN     TEMP     REL HUM     BAR PRE     FUEL MS     FUEL TP     WIND SP     WIND DR     PEAK WS     PEAK WD     SOLAR R     BAT VOL    
(PDT)INCHES   DEG F   %   INCHES   %   DEG F   MPH   DEG   MPH   DEG   W/M^2   VOLTS  
06/28/2016 10:00 3.69 87 41 -- 12 98 -- -- -- -- 781.00 13.5
06/28/2016 11:00 3.69 86 41 -- 10 89 -- -- -- -- 502.00 13.5
06/28/2016 12:00 3.69 82 53 -- 11 87 -- -- -- -- 281.00 13.5
06/28/2016 13:00 3.69 93 36 -- 10 108 -- -- -- -- 724.00 13.4
06/28/2016 14:00 3.69 89 38 -- 8 96 -- -- -- -- 923.00 13.5
06/28/2016 15:00 3.69 86 41 -- 8 90 -- -- -- -- 552.00 13.5
06/28/2016 16:00 3.69 80 51 -- 9 82 -- -- -- -- 194.00 13.5
06/28/2016 17:00 3.69 78 56 -- 9 79 -- -- -- -- 127.00 13.6
06/28/2016 18:00 3.69 74 63 -- 10 75 -- -- -- -- 60.00 12.6
06/28/2016 19:00 3.69 70 74 -- 11 70 -- -- -- -- 16.00 12.5
06/28/2016 20:00 3.69 68 78 -- 13 68 -- -- -- -- 1.00 12.5
06/28/2016 21:00 3.69 67 81 -- 14 67 -- -- -- -- 0.00 12.5
06/28/2016 22:00 3.69 66 85 -- 15 66 -- -- -- -- 0.00 12.5
06/28/2016 23:00 3.69 66 86 -- 16 65 -- -- -- -- 0.00 12.5
06/29/2016 00:00 3.69 66 87 -- 16 65 -- -- -- -- 0.00 12.4
06/29/2016 01:00 3.69 65 88 -- 17 65 -- -- -- -- 0.00 12.4
06/29/2016 02:00 3.69 65 90 -- 18 64 -- -- -- -- 0.00 12.4
06/29/2016 03:00 3.69 64 91 -- 19 63 -- -- -- -- 0.00 12.3
06/29/2016 04:00 3.69 64 92 -- 20 63 -- -- -- -- 0.00 12.3
06/29/2016 05:00 3.69 63 92 -- 21 63 -- -- -- -- 1.00 12.2
06/29/2016 06:00 3.69 65 92 -- 21 65 -- -- -- -- 49.00 12.6
06/29/2016 07:00 3.69 70 77 -- 19 69 -- -- -- -- 221.00 13.5
06/29/2016 08:00 3.69 74 65 -- 17 75 -- -- -- -- 413.00 13.5
06/29/2016 09:00 -- -- -- -- -- -- -- -- -- -- -- --

Later | Latest

Warning! This data is preliminary and subject to revision.

Show MTW Map | 24 Hours MTW Data | Plot all MTW Sensors | Daily MTW Data | MTW Info